Main page
METAR-TAF:

METAR-TAF

Airports :

Coronel FAP Alfredo Mendívil Duarte Airport

Ayacucho, Peru

latitude: 13-08S, longitude: 074-13W, elevation: 2740 m

Current weather observation

The report was made 21 minutes ago, at 18:00 UTC
Wind 3 kt from the South/Southeast, varying between East/Northeast and Southwest
Temperature 23°C
Humidity 23%
Pressure 1026 hPa
Visibility 10 km or more
Few clouds at a height of 4500 ft

METAR: SPHO 241800Z 16003KT 070V230 9999 FEW045 23/01 Q1026 RMK PP000

Time: 13:21 (18:21 UTC)

Forecast

The report was made 1 hour and 21 minutes ago, at 17:00 UTC
Forecast valid from 24 at 18 UTC to 25 at 18 UTC
Wind 5 kt from the East
Visibility 10 km or more
Few clouds at a height of 4000 ft

TAF: SPHO 241700Z 2418/2518 09005KT 9999 FEW040 TX20/2419Z TN09/2511Z

Weather observations and forecasts of more than 4000 airports (METAR and TAF reports).

The available stations are represented by yellow and red dots on the map.

Hover mouse over dot to see the name of the station.

Then click to see weather observations and forecasts.

To change the map : click on the green buttons with a black cross to zoom in, on the green button with a dash to zoom out, or on the green arrows for adjacent maps.


METAR-TAF: